sensor_id;sensor_type;location;lat;lon;timestamp;P1;durP1;ratioP1;P2;durP2;ratioP2
24145;SDS011;12308;50.948;4.706;2023-01-29T00:02:15;84.90;;;39.85;;
24145;SDS011;12308;50.948;4.706;2023-01-29T00:04:41;86.43;;;39.00;;
24145;SDS011;12308;50.948;4.706;2023-01-29T00:07:06;88.72;;;40.33;;
24145;SDS011;12308;50.948;4.706;2023-01-29T00:09:32;85.18;;;38.35;;
24145;SDS011;12308;50.948;4.706;2023-01-29T00:11:58;85.65;;;38.78;;
24145;SDS011;12308;50.948;4.706;2023-01-29T00:14:24;78.20;;;37.92;;
24145;SDS011;12308;50.948;4.706;2023-01-29T00:16:51;85.00;;;39.47;;
24145;SDS011;12308;50.948;4.706;2023-01-29T00:19:17;84.32;;;37.95;;
24145;SDS011;12308;50.948;4.706;2023-01-29T00:21:43;87.82;;;39.53;;
24145;SDS011;12308;50.948;4.706;2023-01-29T00:24:09;78.03;;;36.95;;
24145;SDS011;12308;50.948;4.706;2023-01-29T00:26:35;86.90;;;39.17;;
24145;SDS011;12308;50.948;4.706;2023-01-29T00:29:03;89.60;;;39.17;;
24145;SDS011;12308;50.948;4.706;2023-01-29T00:31:29;80.00;;;38.58;;
24145;SDS011;12308;50.948;4.706;2023-01-29T00:33:55;82.55;;;39.08;;
24145;SDS011;12308;50.948;4.706;2023-01-29T00:36:21;84.68;;;38.85;;
24145;SDS011;12308;50.948;4.706;2023-01-29T00:38:47;89.30;;;38.20;;
24145;SDS011;12308;50.948;4.706;2023-01-29T00:41:22;80.38;;;37.58;;
24145;SDS011;12308;50.948;4.706;2023-01-29T00:44:10;85.82;;;37.60;;
24145;SDS011;12308;50.948;4.706;2023-01-29T00:46:54;80.05;;;38.17;;
24145;SDS011;12308;50.948;4.706;2023-01-29T00:49:20;87.90;;;38.35;;
24145;SDS011;12308;50.948;4.706;2023-01-29T00:51:46;85.63;;;39.80;;
24145;SDS011;12308;50.948;4.706;2023-01-29T00:54:31;87.40;;;39.55;;
24145;SDS011;12308;50.948;4.706;2023-01-29T00:56:57;78.60;;;36.78;;
24145;SDS011;12308;50.948;4.706;2023-01-29T00:59:22;84.65;;;37.70;;
24145;SDS011;12308;50.948;4.706;2023-01-29T01:01:48;85.68;;;37.50;;
24145;SDS011;12308;50.948;4.706;2023-01-29T01:04:32;87.57;;;40.45;;
24145;SDS011;12308;50.948;4.706;2023-01-29T01:06:58;83.43;;;39.00;;
24145;SDS011;12308;50.948;4.706;2023-01-29T01:09:24;88.85;;;40.97;;
24145;SDS011;12308;50.948;4.706;2023-01-29T01:12:08;85.18;;;37.47;;
24145;SDS011;12308;50.948;4.706;2023-01-29T01:14:34;92.65;;;39.30;;
24145;SDS011;12308;50.948;4.706;2023-01-29T01:17:00;85.30;;;38.20;;
24145;SDS011;12308;50.948;4.706;2023-01-29T01:19:26;99.03;;;42.78;;
24145;SDS011;12308;50.948;4.706;2023-01-29T01:21:51;94.13;;;41.03;;
24145;SDS011;12308;50.948;4.706;2023-01-29T01:24:17;89.65;;;41.78;;
24145;SDS011;12308;50.948;4.706;2023-01-29T01:26:44;92.97;;;41.70;;
24145;SDS011;12308;50.948;4.706;2023-01-29T01:29:10;89.25;;;40.95;;
24145;SDS011;12308;50.948;4.706;2023-01-29T01:31:36;93.35;;;42.63;;
24145;SDS011;12308;50.948;4.706;2023-01-29T01:34:02;89.38;;;42.42;;
24145;SDS011;12308;50.948;4.706;2023-01-29T01:36:28;93.15;;;41.20;;
24145;SDS011;12308;50.948;4.706;2023-01-29T01:38:56;91.50;;;40.95;;
24145;SDS011;12308;50.948;4.706;2023-01-29T01:41:22;94.03;;;42.63;;
24145;SDS011;12308;50.948;4.706;2023-01-29T01:43:54;90.35;;;42.42;;
24145;SDS011;12308;50.948;4.706;2023-01-29T01:46:22;89.38;;;41.70;;
24145;SDS011;12308;50.948;4.706;2023-01-29T01:49:08;87.18;;;40.65;;
24145;SDS011;12308;50.948;4.706;2023-01-29T01:51:42;93.90;;;41.95;;
24145;SDS011;12308;50.948;4.706;2023-01-29T01:54:16;93.40;;;41.72;;
24145;SDS011;12308;50.948;4.706;2023-01-29T01:56:48;91.32;;;41.55;;
24145;SDS011;12308;50.948;4.706;2023-01-29T01:59:19;93.05;;;41.80;;
24145;SDS011;12308;50.948;4.706;2023-01-29T02:01:48;95.57;;;42.70;;
24145;SDS011;12308;50.948;4.706;2023-01-29T02:04:21;95.82;;;43.35;;
24145;SDS011;12308;50.948;4.706;2023-01-29T02:07:09;97.10;;;43.90;;
24145;SDS011;12308;50.948;4.706;2023-01-29T02:10:02;90.57;;;42.08;;
24145;SDS011;12308;50.948;4.706;2023-01-29T02:12:35;86.88;;;41.45;;
24145;SDS011;12308;50.948;4.706;2023-01-29T02:15:01;90.82;;;41.58;;
24145;SDS011;12308;50.948;4.706;2023-01-29T02:17:27;91.30;;;40.72;;
24145;SDS011;12308;50.948;4.706;2023-01-29T02:25:41;108.10;;;45.58;;
24145;SDS011;12308;50.948;4.706;2023-01-29T02:31:31;95.18;;;44.58;;
24145;SDS011;12308;50.948;4.706;2023-01-29T02:37:24;94.53;;;44.10;;
24145;SDS011;12308;50.948;4.706;2023-01-29T02:40:04;91.70;;;41.60;;
24145;SDS011;12308;50.948;4.706;2023-01-29T02:45:18;94.80;;;44.90;;
24145;SDS011;12308;50.948;4.706;2023-01-29T02:47:54;94.15;;;42.97;;
24145;SDS011;12308;50.948;4.706;2023-01-29T02:53:05;99.85;;;45.20;;
24145;SDS011;12308;50.948;4.706;2023-01-29T02:55:48;93.65;;;43.15;;
24145;SDS011;12308;50.948;4.706;2023-01-29T02:58:36;89.70;;;41.75;;
24145;SDS011;12308;50.948;4.706;2023-01-29T03:01:08;88.47;;;41.05;;
24145;SDS011;12308;50.948;4.706;2023-01-29T03:03:41;95.32;;;42.10;;
24145;SDS011;12308;50.948;4.706;2023-01-29T03:11:23;92.03;;;41.45;;
24145;SDS011;12308;50.948;4.706;2023-01-29T03:17:14;94.97;;;44.00;;
24145;SDS011;12308;50.948;4.706;2023-01-29T03:19:40;94.55;;;42.60;;
24145;SDS011;12308;50.948;4.706;2023-01-29T03:22:10;91.28;;;41.05;;
24145;SDS011;12308;50.948;4.706;2023-01-29T03:24:42;89.80;;;41.28;;
24145;SDS011;12308;50.948;4.706;2023-01-29T03:27:39;91.28;;;41.53;;
24145;SDS011;12308;50.948;4.706;2023-01-29T03:30:24;92.55;;;43.08;;
24145;SDS011;12308;50.948;4.706;2023-01-29T03:33:11;87.97;;;41.72;;
24145;SDS011;12308;50.948;4.706;2023-01-29T03:35:46;88.20;;;42.70;;
24145;SDS011;12308;50.948;4.706;2023-01-29T03:38:17;93.20;;;42.08;;
24145;SDS011;12308;50.948;4.706;2023-01-29T03:40:58;92.55;;;43.47;;
24145;SDS011;12308;50.948;4.706;2023-01-29T03:43:34;97.88;;;44.53;;
24145;SDS011;12308;50.948;4.706;2023-01-29T03:51:29;91.72;;;43.13;;
24145;SDS011;12308;50.948;4.706;2023-01-29T03:56:53;96.20;;;45.47;;
24145;SDS011;12308;50.948;4.706;2023-01-29T03:59:38;91.72;;;43.85;;
24145;SDS011;12308;50.948;4.706;2023-01-29T04:02:12;108.90;;;46.08;;
24145;SDS011;12308;50.948;4.706;2023-01-29T04:04:44;94.38;;;43.10;;
24145;SDS011;12308;50.948;4.706;2023-01-29T04:07:16;95.38;;;47.03;;
24145;SDS011;12308;50.948;4.706;2023-01-29T04:10:09;101.88;;;46.88;;
24145;SDS011;12308;50.948;4.706;2023-01-29T04:12:43;101.38;;;47.28;;
24145;SDS011;12308;50.948;4.706;2023-01-29T04:15:12;98.38;;;46.70;;
24145;SDS011;12308;50.948;4.706;2023-01-29T04:17:40;102.68;;;46.55;;
24145;SDS011;12308;50.948;4.706;2023-01-29T04:20:09;107.70;;;49.40;;
24145;SDS011;12308;50.948;4.706;2023-01-29T04:22:36;111.00;;;50.00;;
24145;SDS011;12308;50.948;4.706;2023-01-29T04:25:06;104.57;;;48.87;;
24145;SDS011;12308;50.948;4.706;2023-01-29T04:38:39;110.32;;;49.80;;
24145;SDS011;12308;50.948;4.706;2023-01-29T04:47:04;98.20;;;46.08;;
24145;SDS011;12308;50.948;4.706;2023-01-29T05:00:19;107.63;;;49.28;;
24145;SDS011;12308;50.948;4.706;2023-01-29T05:03:00;107.10;;;49.92;;
24145;SDS011;12308;50.948;4.706;2023-01-29T05:05:28;101.78;;;48.72;;
24145;SDS011;12308;50.948;4.706;2023-01-29T05:07:54;111.72;;;49.95;;
24145;SDS011;12308;50.948;4.706;2023-01-29T05:10:22;110.25;;;50.20;;
24145;SDS011;12308;50.948;4.706;2023-01-29T05:12:59;105.53;;;48.70;;
24145;SDS011;12308;50.948;4.706;2023-01-29T05:15:37;110.63;;;50.75;;
24145;SDS011;12308;50.948;4.706;2023-01-29T05:18:05;106.80;;;48.90;;
24145;SDS011;12308;50.948;4.706;2023-01-29T05:20:33;106.45;;;50.13;;
24145;SDS011;12308;50.948;4.706;2023-01-29T05:23:02;111.70;;;50.58;;
24145;SDS011;12308;50.948;4.706;2023-01-29T05:25:30;110.25;;;50.83;;
24145;SDS011;12308;50.948;4.706;2023-01-29T05:27:57;107.43;;;51.08;;
24145;SDS011;12308;50.948;4.706;2023-01-29T05:30:33;102.38;;;46.72;;
24145;SDS011;12308;50.948;4.706;2023-01-29T05:33:01;104.88;;;49.15;;
24145;SDS011;12308;50.948;4.706;2023-01-29T05:35:27;109.18;;;50.10;;
24145;SDS011;12308;50.948;4.706;2023-01-29T05:37:56;101.93;;;48.17;;
24145;SDS011;12308;50.948;4.706;2023-01-29T05:40:23;108.38;;;50.00;;
24145;SDS011;12308;50.948;4.706;2023-01-29T05:42:49;104.43;;;49.25;;
24145;SDS011;12308;50.948;4.706;2023-01-29T05:45:15;101.65;;;48.30;;
24145;SDS011;12308;50.948;4.706;2023-01-29T05:47:42;106.18;;;47.65;;
24145;SDS011;12308;50.948;4.706;2023-01-29T05:50:08;102.45;;;46.80;;
24145;SDS011;12308;50.948;4.706;2023-01-29T05:52:34;107.28;;;47.58;;
24145;SDS011;12308;50.948;4.706;2023-01-29T05:54:59;107.70;;;49.25;;
24145;SDS011;12308;50.948;4.706;2023-01-29T05:57:25;109.05;;;48.78;;
24145;SDS011;12308;50.948;4.706;2023-01-29T05:59:51;110.90;;;49.30;;
24145;SDS011;12308;50.948;4.706;2023-01-29T06:02:16;105.53;;;49.20;;
24145;SDS011;12308;50.948;4.706;2023-01-29T06:04:42;104.82;;;47.85;;
24145;SDS011;12308;50.948;4.706;2023-01-29T06:07:08;102.53;;;47.60;;
24145;SDS011;12308;50.948;4.706;2023-01-29T06:09:33;105.82;;;47.08;;
24145;SDS011;12308;50.948;4.706;2023-01-29T06:11:59;107.93;;;48.65;;
24145;SDS011;12308;50.948;4.706;2023-01-29T06:14:24;104.53;;;46.25;;
24145;SDS011;12308;50.948;4.706;2023-01-29T06:16:50;102.85;;;45.50;;
24145;SDS011;12308;50.948;4.706;2023-01-29T06:19:16;106.20;;;46.33;;
24145;SDS011;12308;50.948;4.706;2023-01-29T06:21:42;100.13;;;46.15;;
24145;SDS011;12308;50.948;4.706;2023-01-29T06:24:07;114.43;;;47.17;;
24145;SDS011;12308;50.948;4.706;2023-01-29T06:26:33;106.88;;;46.28;;
24145;SDS011;12308;50.948;4.706;2023-01-29T06:28:59;105.22;;;46.13;;
24145;SDS011;12308;50.948;4.706;2023-01-29T06:31:24;109.53;;;46.45;;
24145;SDS011;12308;50.948;4.706;2023-01-29T06:33:50;106.30;;;46.05;;
24145;SDS011;12308;50.948;4.706;2023-01-29T06:36:16;101.97;;;46.42;;
24145;SDS011;12308;50.948;4.706;2023-01-29T06:38:41;101.13;;;45.22;;
24145;SDS011;12308;50.948;4.706;2023-01-29T06:41:08;102.82;;;45.65;;
24145;SDS011;12308;50.948;4.706;2023-01-29T06:43:38;99.35;;;44.78;;
24145;SDS011;12308;50.948;4.706;2023-01-29T06:46:05;100.47;;;45.53;;
24145;SDS011;12308;50.948;4.706;2023-01-29T06:48:32;105.43;;;47.33;;
24145;SDS011;12308;50.948;4.706;2023-01-29T06:51:07;97.80;;;44.60;;
24145;SDS011;12308;50.948;4.706;2023-01-29T06:53:34;102.53;;;46.03;;
24145;SDS011;12308;50.948;4.706;2023-01-29T06:56:03;100.18;;;45.58;;
24145;SDS011;12308;50.948;4.706;2023-01-29T06:58:30;104.32;;;46.20;;
24145;SDS011;12308;50.948;4.706;2023-01-29T07:01:05;101.20;;;46.15;;
24145;SDS011;12308;50.948;4.706;2023-01-29T07:03:32;106.03;;;45.60;;
24145;SDS011;12308;50.948;4.706;2023-01-29T07:05:58;105.18;;;46.25;;
24145;SDS011;12308;50.948;4.706;2023-01-29T07:08:24;98.82;;;44.20;;
24145;SDS011;12308;50.948;4.706;2023-01-29T07:10:49;106.70;;;47.45;;
24145;SDS011;12308;50.948;4.706;2023-01-29T07:13:15;99.60;;;44.97;;
24145;SDS011;12308;50.948;4.706;2023-01-29T07:15:41;99.60;;;46.00;;
24145;SDS011;12308;50.948;4.706;2023-01-29T07:18:08;100.70;;;43.28;;
24145;SDS011;12308;50.948;4.706;2023-01-29T07:20:40;103.25;;;45.08;;
24145;SDS011;12308;50.948;4.706;2023-01-29T07:23:13;107.43;;;45.58;;
24145;SDS011;12308;50.948;4.706;2023-01-29T07:25:39;105.60;;;45.22;;
24145;SDS011;12308;50.948;4.706;2023-01-29T07:28:05;105.47;;;44.95;;
24145;SDS011;12308;50.948;4.706;2023-01-29T07:30:31;98.47;;;43.78;;
24145;SDS011;12308;50.948;4.706;2023-01-29T07:33:01;107.00;;;46.05;;
24145;SDS011;12308;50.948;4.706;2023-01-29T07:35:28;100.85;;;42.97;;
24145;SDS011;12308;50.948;4.706;2023-01-29T07:37:56;100.85;;;44.53;;
24145;SDS011;12308;50.948;4.706;2023-01-29T07:40:21;102.13;;;44.50;;
24145;SDS011;12308;50.948;4.706;2023-01-29T07:42:47;103.75;;;43.72;;
24145;SDS011;12308;50.948;4.706;2023-01-29T07:45:13;105.55;;;44.00;;
24145;SDS011;12308;50.948;4.706;2023-01-29T07:47:38;104.97;;;44.47;;
24145;SDS011;12308;50.948;4.706;2023-01-29T07:50:04;105.03;;;43.90;;
24145;SDS011;12308;50.948;4.706;2023-01-29T07:52:31;101.00;;;43.83;;
24145;SDS011;12308;50.948;4.706;2023-01-29T07:54:57;100.00;;;42.83;;
24145;SDS011;12308;50.948;4.706;2023-01-29T07:57:23;104.18;;;44.15;;
24145;SDS011;12308;50.948;4.706;2023-01-29T07:59:49;105.65;;;44.05;;
24145;SDS011;12308;50.948;4.706;2023-01-29T08:02:15;101.68;;;44.45;;
24145;SDS011;12308;50.948;4.706;2023-01-29T08:04:41;109.55;;;43.78;;
24145;SDS011;12308;50.948;4.706;2023-01-29T08:07:06;107.72;;;43.47;;
24145;SDS011;12308;50.948;4.706;2023-01-29T08:09:33;107.22;;;42.97;;
24145;SDS011;12308;50.948;4.706;2023-01-29T08:12:00;100.78;;;43.63;;
24145;SDS011;12308;50.948;4.706;2023-01-29T08:14:25;102.47;;;43.45;;
24145;SDS011;12308;50.948;4.706;2023-01-29T08:16:51;101.95;;;43.80;;
24145;SDS011;12308;50.948;4.706;2023-01-29T08:19:17;108.43;;;44.42;;
24145;SDS011;12308;50.948;4.706;2023-01-29T08:21:42;107.97;;;44.08;;
24145;SDS011;12308;50.948;4.706;2023-01-29T08:24:08;103.95;;;44.25;;
24145;SDS011;12308;50.948;4.706;2023-01-29T08:26:33;102.82;;;43.97;;
24145;SDS011;12308;50.948;4.706;2023-01-29T08:28:59;103.35;;;43.85;;
24145;SDS011;12308;50.948;4.706;2023-01-29T08:31:25;105.88;;;43.00;;
24145;SDS011;12308;50.948;4.706;2023-01-29T08:33:52;102.22;;;43.08;;
24145;SDS011;12308;50.948;4.706;2023-01-29T08:36:19;103.75;;;43.58;;
24145;SDS011;12308;50.948;4.706;2023-01-29T08:38:52;99.05;;;42.85;;
24145;SDS011;12308;50.948;4.706;2023-01-29T08:41:18;100.57;;;42.30;;
24145;SDS011;12308;50.948;4.706;2023-01-29T08:43:43;103.15;;;41.97;;
24145;SDS011;12308;50.948;4.706;2023-01-29T08:46:10;98.30;;;43.47;;
24145;SDS011;12308;50.948;4.706;2023-01-29T08:48:36;97.03;;;40.78;;
24145;SDS011;12308;50.948;4.706;2023-01-29T08:51:02;100.72;;;42.50;;
24145;SDS011;12308;50.948;4.706;2023-01-29T08:53:29;102.93;;;42.63;;
24145;SDS011;12308;50.948;4.706;2023-01-29T08:55:55;105.80;;;43.60;;
24145;SDS011;12308;50.948;4.706;2023-01-29T08:58:20;104.78;;;43.78;;
24145;SDS011;12308;50.948;4.706;2023-01-29T09:00:46;107.70;;;44.28;;
24145;SDS011;12308;50.948;4.706;2023-01-29T09:03:12;104.43;;;43.25;;
24145;SDS011;12308;50.948;4.706;2023-01-29T09:05:38;107.57;;;43.60;;
24145;SDS011;12308;50.948;4.706;2023-01-29T09:08:05;104.63;;;42.53;;
24145;SDS011;12308;50.948;4.706;2023-01-29T09:10:32;102.18;;;43.75;;
24145;SDS011;12308;50.948;4.706;2023-01-29T09:12:58;98.88;;;42.60;;
24145;SDS011;12308;50.948;4.706;2023-01-29T09:15:23;95.05;;;41.05;;
24145;SDS011;12308;50.948;4.706;2023-01-29T09:17:49;102.68;;;43.70;;
24145;SDS011;12308;50.948;4.706;2023-01-29T09:20:15;104.70;;;44.10;;
24145;SDS011;12308;50.948;4.706;2023-01-29T09:22:42;104.07;;;44.22;;
24145;SDS011;12308;50.948;4.706;2023-01-29T09:25:08;96.55;;;41.42;;
24145;SDS011;12308;50.948;4.706;2023-01-29T09:27:34;93.20;;;41.33;;
24145;SDS011;12308;50.948;4.706;2023-01-29T09:30:00;98.15;;;42.55;;
24145;SDS011;12308;50.948;4.706;2023-01-29T09:32:26;101.63;;;43.78;;
24145;SDS011;12308;50.948;4.706;2023-01-29T09:34:55;97.28;;;42.25;;
24145;SDS011;12308;50.948;4.706;2023-01-29T09:37:21;104.82;;;43.40;;
24145;SDS011;12308;50.948;4.706;2023-01-29T09:39:49;102.68;;;43.33;;
24145;SDS011;12308;50.948;4.706;2023-01-29T09:47:41;105.28;;;44.35;;
24145;SDS011;12308;50.948;4.706;2023-01-29T09:50:22;106.85;;;45.20;;
24145;SDS011;12308;50.948;4.706;2023-01-29T09:52:57;104.25;;;44.22;;
24145;SDS011;12308;50.948;4.706;2023-01-29T09:56:03;109.28;;;44.58;;
24145;SDS011;12308;50.948;4.706;2023-01-29T09:58:34;104.45;;;44.30;;
24145;SDS011;12308;50.948;4.706;2023-01-29T10:06:42;99.00;;;43.17;;
24145;SDS011;12308;50.948;4.706;2023-01-29T10:20:27;100.03;;;43.58;;
24145;SDS011;12308;50.948;4.706;2023-01-29T10:23:15;104.85;;;43.78;;
24145;SDS011;12308;50.948;4.706;2023-01-29T10:25:51;100.13;;;42.75;;
24145;SDS011;12308;50.948;4.706;2023-01-29T10:28:26;99.47;;;42.65;;
24145;SDS011;12308;50.948;4.706;2023-01-29T10:30:59;107.93;;;44.72;;
24145;SDS011;12308;50.948;4.706;2023-01-29T10:33:42;100.18;;;44.67;;
24145;SDS011;12308;50.948;4.706;2023-01-29T10:36:35;101.57;;;44.28;;
24145;SDS011;12308;50.948;4.706;2023-01-29T10:39:16;97.45;;;42.28;;
24145;SDS011;12308;50.948;4.706;2023-01-29T11:00:57;90.80;;;40.55;;
24145;SDS011;12308;50.948;4.706;2023-01-29T11:03:24;96.32;;;40.72;;
24145;SDS011;12308;50.948;4.706;2023-01-29T11:05:56;96.03;;;40.97;;
24145;SDS011;12308;50.948;4.706;2023-01-29T11:09:16;93.03;;;40.00;;
24145;SDS011;12308;50.948;4.706;2023-01-29T11:14:50;98.07;;;40.85;;
24145;SDS011;12308;50.948;4.706;2023-01-29T11:17:21;91.25;;;39.97;;
24145;SDS011;12308;50.948;4.706;2023-01-29T11:19:48;91.30;;;40.33;;
24145;SDS011;12308;50.948;4.706;2023-01-29T11:24:46;92.55;;;40.33;;
24145;SDS011;12308;50.948;4.706;2023-01-29T11:27:32;91.57;;;39.50;;
24145;SDS011;12308;50.948;4.706;2023-01-29T11:29:59;88.80;;;38.33;;
24145;SDS011;12308;50.948;4.706;2023-01-29T11:32:27;87.78;;;39.22;;
24145;SDS011;12308;50.948;4.706;2023-01-29T11:37:39;92.03;;;39.63;;
24145;SDS011;12308;50.948;4.706;2023-01-29T11:42:48;88.05;;;39.38;;
24145;SDS011;12308;50.948;4.706;2023-01-29T11:47:54;85.97;;;37.22;;
24145;SDS011;12308;50.948;4.706;2023-01-29T11:50:22;91.75;;;39.13;;
24145;SDS011;12308;50.948;4.706;2023-01-29T11:52:52;93.93;;;39.25;;
24145;SDS011;12308;50.948;4.706;2023-01-29T11:55:25;94.07;;;39.05;;
24145;SDS011;12308;50.948;4.706;2023-01-29T11:57:57;90.97;;;39.67;;
24145;SDS011;12308;50.948;4.706;2023-01-29T12:00:31;90.75;;;39.85;;
24145;SDS011;12308;50.948;4.706;2023-01-29T12:03:05;82.38;;;37.63;;
24145;SDS011;12308;50.948;4.706;2023-01-29T12:05:37;86.10;;;37.30;;
24145;SDS011;12308;50.948;4.706;2023-01-29T12:08:09;90.72;;;39.15;;
24145;SDS011;12308;50.948;4.706;2023-01-29T12:10:41;80.30;;;36.42;;
24145;SDS011;12308;50.948;4.706;2023-01-29T12:15:44;81.65;;;36.53;;
24145;SDS011;12308;50.948;4.706;2023-01-29T12:18:13;89.00;;;38.55;;
24145;SDS011;12308;50.948;4.706;2023-01-29T12:21:14;90.13;;;41.33;;
24145;SDS011;12308;50.948;4.706;2023-01-29T12:23:55;130.32;;;58.60;;
24145;SDS011;12308;50.948;4.706;2023-01-29T12:26:48;81.57;;;38.17;;
24145;SDS011;12308;50.948;4.706;2023-01-29T12:29:23;83.40;;;37.83;;
24145;SDS011;12308;50.948;4.706;2023-01-29T12:40:16;84.00;;;35.72;;
24145;SDS011;12308;50.948;4.706;2023-01-29T12:42:47;84.00;;;37.88;;
24145;SDS011;12308;50.948;4.706;2023-01-29T12:45:18;77.97;;;35.58;;
24145;SDS011;12308;50.948;4.706;2023-01-29T12:47:50;84.40;;;38.17;;
24145;SDS011;12308;50.948;4.706;2023-01-29T12:50:26;85.85;;;36.70;;
24145;SDS011;12308;50.948;4.706;2023-01-29T12:56:16;68.88;;;30.95;;
24145;SDS011;12308;50.948;4.706;2023-01-29T12:58:52;75.05;;;31.75;;
24145;SDS011;12308;50.948;4.706;2023-01-29T13:01:33;70.55;;;31.92;;
24145;SDS011;12308;50.948;4.706;2023-01-29T13:04:10;68.63;;;30.27;;
24145;SDS011;12308;50.948;4.706;2023-01-29T13:06:53;63.40;;;29.40;;
24145;SDS011;12308;50.948;4.706;2023-01-29T13:09:27;63.85;;;28.85;;
24145;SDS011;12308;50.948;4.706;2023-01-29T13:12:12;60.45;;;28.05;;
24145;SDS011;12308;50.948;4.706;2023-01-29T13:14:55;57.72;;;27.50;;
24145;SDS011;12308;50.948;4.706;2023-01-29T13:20:15;55.58;;;25.30;;
24145;SDS011;12308;50.948;4.706;2023-01-29T13:22:45;58.38;;;26.50;;
24145;SDS011;12308;50.948;4.706;2023-01-29T13:25:15;54.70;;;25.85;;
24145;SDS011;12308;50.948;4.706;2023-01-29T13:27:42;52.65;;;25.25;;
24145;SDS011;12308;50.948;4.706;2023-01-29T13:30:28;53.83;;;24.23;;
24145;SDS011;12308;50.948;4.706;2023-01-29T13:32:55;49.85;;;23.90;;
24145;SDS011;12308;50.948;4.706;2023-01-29T13:35:41;53.75;;;24.63;;
24145;SDS011;12308;50.948;4.706;2023-01-29T13:38:23;50.42;;;24.67;;
24145;SDS011;12308;50.948;4.706;2023-01-29T13:40:52;45.75;;;21.50;;
24145;SDS011;12308;50.948;4.706;2023-01-29T13:43:23;47.67;;;22.75;;
24145;SDS011;12308;50.948;4.706;2023-01-29T13:45:50;48.95;;;22.67;;
24145;SDS011;12308;50.948;4.706;2023-01-29T13:50:45;48.90;;;22.25;;
24145;SDS011;12308;50.948;4.706;2023-01-29T13:53:32;48.00;;;23.42;;
24145;SDS011;12308;50.948;4.706;2023-01-29T13:58:55;51.25;;;24.17;;
24145;SDS011;12308;50.948;4.706;2023-01-29T14:06:50;51.08;;;25.17;;
24145;SDS011;12308;50.948;4.706;2023-01-29T14:09:30;46.45;;;24.40;;
24145;SDS011;12308;50.948;4.706;2023-01-29T14:11:57;51.67;;;24.10;;
24145;SDS011;12308;50.948;4.706;2023-01-29T14:17:16;49.80;;;24.73;;
24145;SDS011;12308;50.948;4.706;2023-01-29T14:19:51;49.67;;;24.02;;
24145;SDS011;12308;50.948;4.706;2023-01-29T14:22:19;47.88;;;24.17;;
24145;SDS011;12308;50.948;4.706;2023-01-29T14:24:54;47.83;;;22.70;;
24145;SDS011;12308;50.948;4.706;2023-01-29T14:27:24;45.92;;;23.25;;
24145;SDS011;12308;50.948;4.706;2023-01-29T14:29:50;47.65;;;23.90;;
24145;SDS011;12308;50.948;4.706;2023-01-29T14:32:23;44.70;;;22.63;;
24145;SDS011;12308;50.948;4.706;2023-01-29T14:37:44;45.92;;;23.38;;
24145;SDS011;12308;50.948;4.706;2023-01-29T14:42:55;42.63;;;23.33;;
24145;SDS011;12308;50.948;4.706;2023-01-29T14:47:57;45.85;;;24.15;;
24145;SDS011;12308;50.948;4.706;2023-01-29T14:53:00;57.78;;;27.33;;
24145;SDS011;12308;50.948;4.706;2023-01-29T14:58:17;46.13;;;25.05;;
24145;SDS011;12308;50.948;4.706;2023-01-29T15:00:49;64.25;;;29.92;;
24145;SDS011;12308;50.948;4.706;2023-01-29T15:03:19;46.72;;;24.20;;
24145;SDS011;12308;50.948;4.706;2023-01-29T15:05:53;61.60;;;29.88;;
24145;SDS011;12308;50.948;4.706;2023-01-29T15:08:36;44.80;;;23.60;;
24145;SDS011;12308;50.948;4.706;2023-01-29T15:11:13;44.00;;;22.88;;
24145;SDS011;12308;50.948;4.706;2023-01-29T15:19:25;42.63;;;22.35;;
24145;SDS011;12308;50.948;4.706;2023-01-29T15:22:06;44.00;;;22.83;;
24145;SDS011;12308;50.948;4.706;2023-01-29T15:24:42;40.08;;;20.58;;
24145;SDS011;12308;50.948;4.706;2023-01-29T15:27:11;46.42;;;23.35;;
24145;SDS011;12308;50.948;4.706;2023-01-29T15:29:42;43.75;;;21.80;;
24145;SDS011;12308;50.948;4.706;2023-01-29T15:32:31;43.22;;;23.15;;
24145;SDS011;12308;50.948;4.706;2023-01-29T15:34:59;45.88;;;23.27;;
24145;SDS011;12308;50.948;4.706;2023-01-29T15:37:47;45.88;;;23.48;;
24145;SDS011;12308;50.948;4.706;2023-01-29T15:40:30;46.05;;;24.15;;
24145;SDS011;12308;50.948;4.706;2023-01-29T15:42:56;46.88;;;24.20;;
24145;SDS011;12308;50.948;4.706;2023-01-29T15:45:23;47.80;;;24.60;;
24145;SDS011;12308;50.948;4.706;2023-01-29T15:47:51;46.55;;;23.55;;
24145;SDS011;12308;50.948;4.706;2023-01-29T15:50:20;43.50;;;24.00;;
24145;SDS011;12308;50.948;4.706;2023-01-29T15:52:50;44.53;;;22.83;;
24145;SDS011;12308;50.948;4.706;2023-01-29T15:55:18;46.25;;;23.15;;
24145;SDS011;12308;50.948;4.706;2023-01-29T15:57:46;49.78;;;24.08;;
24145;SDS011;12308;50.948;4.706;2023-01-29T16:00:24;46.17;;;24.00;;
24145;SDS011;12308;50.948;4.706;2023-01-29T16:02:52;45.13;;;23.63;;
24145;SDS011;12308;50.948;4.706;2023-01-29T16:05:20;50.78;;;22.90;;
24145;SDS011;12308;50.948;4.706;2023-01-29T16:07:50;43.92;;;21.88;;
24145;SDS011;12308;50.948;4.706;2023-01-29T16:10:18;45.50;;;23.15;;
24145;SDS011;12308;50.948;4.706;2023-01-29T16:12:46;49.22;;;22.75;;
24145;SDS011;12308;50.948;4.706;2023-01-29T16:15:19;50.08;;;23.30;;
24145;SDS011;12308;50.948;4.706;2023-01-29T16:17:52;47.35;;;23.73;;
24145;SDS011;12308;50.948;4.706;2023-01-29T16:20:20;44.38;;;23.63;;
24145;SDS011;12308;50.948;4.706;2023-01-29T16:22:55;50.53;;;22.83;;
24145;SDS011;12308;50.948;4.706;2023-01-29T16:25:21;50.53;;;24.65;;
24145;SDS011;12308;50.948;4.706;2023-01-29T16:27:47;46.90;;;24.75;;
24145;SDS011;12308;50.948;4.706;2023-01-29T16:30:14;56.30;;;25.50;;
24145;SDS011;12308;50.948;4.706;2023-01-29T16:32:41;54.22;;;25.75;;
24145;SDS011;12308;50.948;4.706;2023-01-29T16:35:12;57.13;;;26.92;;
24145;SDS011;12308;50.948;4.706;2023-01-29T16:37:40;52.97;;;25.90;;
24145;SDS011;12308;50.948;4.706;2023-01-29T16:40:14;56.08;;;25.92;;
24145;SDS011;12308;50.948;4.706;2023-01-29T16:42:55;61.45;;;27.40;;
24145;SDS011;12308;50.948;4.706;2023-01-29T16:46:04;66.32;;;26.30;;
24145;SDS011;12308;50.948;4.706;2023-01-29T16:48:39;58.55;;;27.20;;
24145;SDS011;12308;50.948;4.706;2023-01-29T16:51:12;60.65;;;28.42;;
24145;SDS011;12308;50.948;4.706;2023-01-29T16:53:54;57.92;;;27.02;;
24145;SDS011;12308;50.948;4.706;2023-01-29T16:56:21;66.47;;;28.55;;
24145;SDS011;12308;50.948;4.706;2023-01-29T16:58:49;62.03;;;29.10;;
24145;SDS011;12308;50.948;4.706;2023-01-29T17:01:16;60.72;;;28.10;;
24145;SDS011;12308;50.948;4.706;2023-01-29T17:03:43;64.47;;;29.92;;
24145;SDS011;12308;50.948;4.706;2023-01-29T17:06:09;62.65;;;29.67;;
24145;SDS011;12308;50.948;4.706;2023-01-29T17:08:36;64.78;;;30.13;;
24145;SDS011;12308;50.948;4.706;2023-01-29T17:11:05;69.93;;;30.38;;
24145;SDS011;12308;50.948;4.706;2023-01-29T17:13:36;72.65;;;33.10;;
24145;SDS011;12308;50.948;4.706;2023-01-29T17:18:57;74.03;;;33.17;;
24145;SDS011;12308;50.948;4.706;2023-01-29T17:21:24;64.43;;;29.63;;
24145;SDS011;12308;50.948;4.706;2023-01-29T17:23:50;66.13;;;29.83;;
24145;SDS011;12308;50.948;4.706;2023-01-29T17:26:16;67.95;;;31.30;;
24145;SDS011;12308;50.948;4.706;2023-01-29T17:28:43;64.75;;;30.25;;